Time;durP1;ratioP1;P1;durP2;ratioP2;P2;SDS_P1;SDS_P2;PMS_P1;PMS_P2;Temp;Humidity;BMP_temperature;BMP_pressure;BME280_temperature;BME280_humidity;BME280_pressure;Samples;Min_cycle;Max_cycle;Signal;HPM_P1;HPM_P2
2021/12/16 00:09:42;;;;;;;20.05;12.28;;;;;;;3.06;69.14;101552.99;1830530;76;21069;-59
2021/12/16 00:33:34;;;;;;;16.35;10.32;;;;;;;2.62;69.76;101544.74;1837844;76;20988;-61
2021/12/16 00:35:50;;;;;;;16.80;10.68;;;;;;;2.60;69.81;101544.33;1838896;76;21620;-61
2021/12/16 00:38:17;;;;;;;18.02;11.28;;;;;;;2.59;70.03;101545.70;1836415;76;21067;-62
2021/12/16 00:40:44;;;;;;;15.45;8.90;;;;;;;2.55;70.15;101547.96;1840021;76;21523;-59
2021/12/16 00:43:23;;;;;;;16.12;10.18;;;;;;;2.54;70.26;101543.65;1813195;76;21086;-59
2021/12/16 00:46:43;;;;;;;18.50;9.53;;;;;;;2.52;70.20;101542.42;1839685;76;21911;-60
2021/12/16 00:56:05;;;;;;;14.60;8.55;;;;;;;2.70;69.80;101538.89;1835808;76;21024;-61
2021/12/16 00:58:49;;;;;;;15.85;10.50;;;;;;;2.72;69.58;101531.47;1796624;78;21038;-61
2021/12/16 01:01:31;;;;;;;16.15;10.43;;;;;;;2.69;69.66;101530.25;1771056;79;21659;-60
2021/12/16 01:04:12;;;;;;;15.78;9.45;;;;;;;2.64;70.02;101526.93;1780204;78;21125;-61
2021/12/16 01:34:23;;;;;;;20.20;11.40;;;;;;;2.54;70.58;101491.68;1838456;76;21015;-61
2021/12/16 01:49:59;;;;;;;17.00;9.45;;;;;;;2.65;70.24;101487.03;1833426;76;21012;-59
2021/12/16 01:55:13;;;;;;;18.92;9.75;;;;;;;2.80;70.27;101496.13;1840884;76;21053;-60
2021/12/16 01:57:48;;;;;;;17.80;9.90;;;;;;;2.85;70.21;101484.30;1791064;76;21051;-60
2021/12/16 02:00:30;;;;;;;18.10;11.12;;;;;;;2.91;69.95;101487.57;1823389;76;21035;-59
2021/12/16 02:03:03;;;;;;;16.35;9.85;;;;;;;2.93;69.71;101482.33;1822275;76;21082;-59
2021/12/16 02:06:00;;;;;;;16.65;9.23;;;;;;;2.89;69.50;101493.27;1838029;76;20992;-60
2021/12/16 02:08:24;;;;;;;16.87;9.18;;;;;;;2.82;69.33;101489.59;1824433;76;21023;-60
2021/12/16 02:11:05;;;;;;;16.35;9.43;;;;;;;2.78;69.47;101500.53;1835535;76;23277;-60
2021/12/16 02:37:36;;;;;;;18.42;9.50;;;;;;;2.90;68.85;101491.52;1833907;76;21197;-60
2021/12/16 02:40:07;;;;;;;17.95;10.05;;;;;;;2.98;68.83;101486.94;1833838;76;21035;-61
2021/12/16 02:42:51;;;;;;;13.88;9.28;;;;;;;3.07;68.77;101481.44;1839140;76;21073;-60
2021/12/16 02:50:20;;;;;;;18.30;10.43;;;;;;;2.98;68.74;101460.94;1829219;76;21404;-60
2021/12/16 02:52:47;;;;;;;16.62;9.93;;;;;;;2.89;68.78;101448.20;1832082;76;21063;-60
2021/12/16 02:55:15;;;;;;;15.90;9.38;;;;;;;2.81;68.98;101442.38;1832151;76;21042;-61
2021/12/16 02:57:59;;;;;;;18.15;9.63;;;;;;;2.74;69.27;101437.40;1842541;75;21094;-60
2021/12/16 03:00:15;;;;;;;18.37;10.58;;;;;;;2.72;69.40;101438.33;1809916;77;21598;-60
2021/12/16 03:02:47;;;;;;;19.80;10.50;;;;;;;2.69;69.53;101431.48;1827427;76;21926;-60
2021/12/16 03:05:14;;;;;;;19.80;9.60;;;;;;;2.75;69.57;101439.08;1827015;76;22565;-60
2021/12/16 03:07:40;;;;;;;18.00;9.50;;;;;;;2.88;69.21;101439.56;1823168;76;21009;-61
2021/12/16 03:12:50;;;;;;;20.55;11.22;;;;;;;2.97;68.83;101434.06;1819329;77;21019;-61
2021/12/16 03:15:29;;;;;;;18.80;11.08;;;;;;;2.95;69.12;101435.02;1840182;76;21996;-60
2021/12/16 03:18:02;;;;;;;20.55;11.50;;;;;;;2.91;69.15;101440.77;1831981;76;21508;-60
2021/12/16 03:20:38;;;;;;;17.92;10.72;;;;;;;2.83;69.18;101431.52;1818735;76;21039;-61
2021/12/16 03:23:15;;;;;;;25.72;12.00;;;;;;;2.75;69.27;101431.28;1830618;76;21504;-60
2021/12/16 03:25:44;;;;;;;18.60;10.68;;;;;;;2.66;69.54;101434.17;1816395;76;21006;-61
2021/12/16 03:36:29;;;;;;;23.65;12.25;;;;;;;2.63;69.88;101429.06;1743046;80;21133;-61
2021/12/16 03:39:01;;;;;;;24.98;13.90;;;;;;;2.62;70.07;101419.55;1739987;80;21042;-60
2021/12/16 03:41:30;;;;;;;24.43;14.10;;;;;;;2.65;70.70;101427.27;1740886;80;21996;-61
2021/12/16 03:43:59;;;;;;;23.50;13.43;;;;;;;2.74;70.72;101430.90;1720022;81;21019;-61
2021/12/16 03:46:33;;;;;;;19.57;11.97;;;;;;;2.77;70.34;101432.11;1723341;80;21031;-61
2021/12/16 03:49:23;;;;;;;28.57;15.08;;;;;;;2.72;70.00;101434.00;1718620;81;21038;-60
2021/12/16 03:52:00;;;;;;;24.60;13.45;;;;;;;2.62;70.26;101438.20;1719831;81;21030;-60
2021/12/16 03:54:38;;;;;;;23.50;12.45;;;;;;;2.62;70.46;101429.95;1739189;80;21068;-59
2021/12/16 03:57:08;;;;;;;26.10;13.55;;;;;;;2.71;70.31;101427.09;1747375;80;21700;-60
2021/12/16 03:59:38;;;;;;;21.52;13.05;;;;;;;2.77;70.13;101431.23;1743642;80;21745;-60
2021/12/16 04:02:28;;;;;;;25.45;14.65;;;;;;;2.81;70.36;101424.19;1734628;80;21110;-59
2021/12/16 04:04:55;;;;;;;25.72;13.83;;;;;;;2.77;70.24;101425.61;1747519;80;21103;-61
2021/12/16 04:07:26;;;;;;;26.12;14.00;;;;;;;2.69;70.23;101423.69;1741305;80;21106;-61
2021/12/16 04:09:54;;;;;;;27.82;15.38;;;;;;;2.62;70.38;101416.11;1753890;79;21030;-61
2021/12/16 04:12:25;;;;;;;27.48;14.78;;;;;;;2.56;70.62;101428.40;1719268;81;20999;-60
2021/12/16 04:14:54;;;;;;;26.12;15.08;;;;;;;2.50;70.72;101415.58;1745650;80;21074;-59
2021/12/16 04:17:25;;;;;;;24.82;13.15;;;;;;;2.49;70.89;101407.83;1705324;82;21041;-60
2021/12/16 04:19:54;;;;;;;21.85;11.75;;;;;;;2.52;70.77;101406.44;1732492;80;21129;-60
2021/12/16 04:22:30;;;;;;;23.73;14.13;;;;;;;2.65;70.64;101418.62;1732384;80;21599;-60
2021/12/16 04:25:02;;;;;;;30.60;14.40;;;;;;;2.73;70.45;101424.45;1721726;80;21030;-60
2021/12/16 04:27:30;;;;;;;24.07;13.30;;;;;;;2.73;70.51;101408.39;1716249;81;21130;-60
2021/12/16 04:29:57;;;;;;;28.15;13.58;;;;;;;2.75;70.60;101401.84;1729395;80;21671;-60
2021/12/16 04:32:25;;;;;;;22.82;13.43;;;;;;;2.74;70.74;101404.91;1729172;80;20975;-60
2021/12/16 04:34:53;;;;;;;23.73;12.53;;;;;;;2.75;70.83;101401.84;1746750;80;21065;-61
2021/12/16 04:37:19;;;;;;;25.85;12.90;;;;;;;2.77;70.71;101400.05;1739440;80;21009;-61
2021/12/16 04:39:46;;;;;;;24.75;13.50;;;;;;;2.76;70.65;101403.56;1735127;80;21493;-61
2021/12/16 04:42:15;;;;;;;23.45;13.40;;;;;;;2.75;70.57;101393.59;1743802;80;20991;-61
2021/12/16 04:44:42;;;;;;;22.65;12.88;;;;;;;2.74;70.57;101393.64;1716023;80;21736;-60
2021/12/16 04:47:09;;;;;;;25.90;12.80;;;;;;;2.81;70.38;101389.09;1737716;80;21079;-60
2021/12/16 04:49:37;;;;;;;23.02;12.15;;;;;;;2.92;70.10;101383.96;1742167;80;21003;-60
2021/12/16 04:52:09;;;;;;;26.02;12.23;;;;;;;3.00;69.97;101390.22;1719993;81;20995;-61
2021/12/16 04:54:35;;;;;;;22.93;13.18;;;;;;;3.04;69.98;101384.02;1720882;81;21082;-61
2021/12/16 04:57:04;;;;;;;23.12;12.93;;;;;;;3.03;70.03;101383.63;1725754;81;21858;-60
2021/12/16 04:59:32;;;;;;;27.00;14.10;;;;;;;3.03;70.07;101382.33;1709311;82;21027;-60
2021/12/16 05:02:09;;;;;;;23.80;14.25;;;;;;;3.03;70.09;101384.93;1739147;80;21030;-61
2021/12/16 05:05:28;;;;;;;27.10;13.45;;;;;;;3.06;70.00;101378.34;1759748;79;22677;-60
2021/12/16 05:07:55;;;;;;;26.17;13.95;;;;;;;3.00;69.74;101372.02;1730602;81;21109;-61
2021/12/16 05:10:28;;;;;;;28.85;13.78;;;;;;;2.95;69.70;101385.16;1732790;81;20986;-61
2021/12/16 05:13:04;;;;;;;25.45;12.55;;;;;;;2.89;69.71;101381.91;1734008;80;20997;-59
2021/12/16 05:15:34;;;;;;;28.80;14.30;;;;;;;2.89;69.74;101380.19;1732035;80;21028;-60
2021/12/16 05:18:03;;;;;;;27.48;13.35;;;;;;;2.98;69.56;101370.77;1732502;81;21000;-60
2021/12/16 05:20:35;;;;;;;22.93;13.50;;;;;;;3.08;69.52;101373.09;1724040;81;21038;-61
2021/12/16 05:28:33;;;;;;;24.92;13.80;;;;;;;3.07;69.60;101373.52;1729036;81;21591;-61
2021/12/16 05:31:02;;;;;;;24.82;13.95;;;;;;;3.03;69.64;101378.43;1700169;81;21389;-60
2021/12/16 05:33:31;;;;;;;28.60;13.90;;;;;;;2.99;69.64;101372.91;1730933;81;21384;-62
2021/12/16 05:35:57;;;;;;;24.65;13.80;;;;;;;2.96;69.71;101375.64;1674178;83;21446;-61
2021/12/16 05:38:27;;;;;;;21.73;12.78;;;;;;;2.96;69.79;101375.64;1688280;83;21094;-62
2021/12/16 05:40:53;;;;;;;25.12;11.93;;;;;;;2.95;69.76;101380.42;1684161;82;21096;-62
2021/12/16 05:43:24;;;;;;;26.23;13.00;;;;;;;2.99;69.61;101379.41;1689044;82;22305;-60
2021/12/16 05:45:52;;;;;;;23.27;13.20;;;;;;;3.12;69.42;101381.17;1681609;82;21555;-61
2021/12/16 05:48:21;;;;;;;23.70;13.38;;;;;;;3.23;69.25;101380.80;1687926;83;22561;-61
2021/12/16 05:50:55;;;;;;;30.90;13.83;;;;;;;3.29;69.20;101396.22;1664186;82;21080;-60
2021/12/16 05:53:22;;;;;;;21.57;12.90;;;;;;;3.30;69.20;101398.77;1691690;82;21109;-61
2021/12/16 05:55:49;;;;;;;26.80;13.98;;;;;;;3.29;68.97;101402.26;1687069;83;21449;-60
2021/12/16 05:58:20;;;;;;;24.43;13.93;;;;;;;3.27;68.98;101395.42;1661830;83;21703;-59
2021/12/16 06:00:50;;;;;;;27.17;13.75;;;;;;;3.25;69.08;101394.63;1690768;83;21163;-59
2021/12/16 06:03:16;;;;;;;24.63;13.38;;;;;;;3.21;68.98;101391.72;1690926;83;21050;-61
2021/12/16 06:05:43;;;;;;;30.20;14.73;;;;;;;3.18;69.12;101393.11;1658112;84;21100;-61
2021/12/16 06:08:10;;;;;;;27.15;14.65;;;;;;;3.18;69.18;101387.91;1677864;83;21104;-62
2021/12/16 06:13:10;;;;;;;25.75;13.55;;;;;;;3.23;69.08;101385.58;1716926;81;21911;-61
2021/12/16 06:26:30;;;;;;;26.77;13.65;;;;;;;3.44;68.46;101366.23;1701185;82;21401;-61
2021/12/16 06:28:52;;;;;;;30.10;15.28;;;;;;;3.35;68.47;101353.09;1712494;81;21098;-61
2021/12/16 06:31:19;;;;;;;26.02;14.60;;;;;;;3.30;68.53;101353.70;1702578;81;21058;-61
2021/12/16 06:33:46;;;;;;;38.80;16.93;;;;;;;3.26;68.51;101352.09;1718768;81;21112;-59
2021/12/16 06:36:13;;;;;;;27.07;13.35;;;;;;;3.20;68.65;101351.02;1700249;82;21297;-61
2021/12/16 06:38:40;;;;;;;26.80;13.22;;;;;;;3.16;68.74;101355.02;1694946;81;21066;-61
2021/12/16 06:41:17;;;;;;;32.17;15.38;;;;;;;3.18;68.59;101350.20;1695767;81;21079;-60
2021/12/16 06:43:47;;;;;;;32.58;14.33;;;;;;;3.28;68.55;101350.31;1716805;81;21558;-60
2021/12/16 06:46:18;;;;;;;28.17;13.80;;;;;;;3.31;68.54;101341.08;1702599;82;21043;-60
2021/12/16 06:48:45;;;;;;;26.23;13.25;;;;;;;3.30;68.43;101344.59;1718121;81;21552;-60
2021/12/16 06:51:19;;;;;;;28.60;14.90;;;;;;;3.25;68.63;101339.55;1719573;80;21856;-61
2021/12/16 06:53:52;;;;;;;29.23;15.28;;;;;;;3.23;68.78;101345.69;1715171;81;21103;-60
2021/12/16 06:56:21;;;;;;;29.75;13.45;;;;;;;3.25;68.92;101339.55;1720397;80;21063;-61
2021/12/16 06:58:48;;;;;;;24.72;13.93;;;;;;;3.30;68.78;101335.50;1711674;81;21035;-60
2021/12/16 07:01:26;;;;;;;25.45;12.43;;;;;;;3.30;68.67;101339.40;1690779;81;21106;-60
2021/12/16 07:03:47;;;;;;;27.77;13.78;;;;;;;3.37;68.35;101333.53;1716993;81;21146;-61
2021/12/16 07:06:19;;;;;;;25.92;12.85;;;;;;;3.48;68.17;101335.28;1712367;81;21124;-61
2021/12/16 07:08:46;;;;;;;25.57;13.62;;;;;;;3.61;68.10;101327.91;1727240;80;21665;-61
2021/12/16 07:11:13;;;;;;;23.12;12.58;;;;;;;3.68;67.75;101333.27;1735736;80;21130;-61
2021/12/16 07:13:41;;;;;;;25.72;11.97;;;;;;;3.65;67.68;101326.91;1732273;80;21068;-61
2021/12/16 07:16:09;;;;;;;23.70;12.82;;;;;;;3.64;67.66;101321.30;1739197;80;21192;-61
2021/12/16 07:18:36;;;;;;;27.58;13.62;;;;;;;3.59;67.37;101321.91;1727994;81;21047;-58
2021/12/16 07:21:04;;;;;;;25.40;12.93;;;;;;;3.50;67.25;101323.94;1735031;80;20914;-59
2021/12/16 07:23:32;;;;;;;25.23;13.68;;;;;;;3.45;67.64;101318.05;1740173;80;21823;-60
2021/12/16 07:25:59;;;;;;;27.35;13.10;;;;;;;3.40;67.31;101320.42;1737918;80;21217;-59
2021/12/16 07:28:26;;;;;;;24.15;13.25;;;;;;;3.32;67.51;101325.88;1681289;83;22089;-61
2021/12/16 07:30:53;;;;;;;24.65;13.60;;;;;;;3.28;67.69;101313.89;1656875;85;21035;-60
2021/12/16 07:33:21;;;;;;;37.33;13.43;;;;;;;3.35;67.40;101315.37;1699840;83;21059;-60
2021/12/16 07:35:47;;;;;;;26.23;14.10;;;;;;;3.35;67.40;101306.27;1725227;80;21040;-60
2021/12/16 07:38:14;;;;;;;21.93;12.95;;;;;;;3.33;67.76;101302.88;1716989;81;21086;-61
2021/12/16 07:40:42;;;;;;;22.10;11.83;;;;;;;3.37;67.76;101312.26;1709524;82;21149;-59
2021/12/16 07:45:43;;;;;;;27.45;14.13;;;;;;;3.33;67.82;101290.71;1735157;80;21042;-61
2021/12/16 07:48:13;;;;;;;24.85;13.32;;;;;;;3.31;67.67;101292.52;1740724;80;21129;-61
2021/12/16 07:50:41;;;;;;;22.80;12.23;;;;;;;3.25;67.62;101286.69;1739757;80;21129;-61
2021/12/16 07:53:07;;;;;;;24.67;12.63;;;;;;;3.28;67.76;101280.08;1740495;80;21286;-62
2021/12/16 07:55:34;;;;;;;22.48;13.40;;;;;;;3.39;67.65;101284.43;1739585;80;21026;-61
2021/12/16 07:58:03;;;;;;;21.93;13.13;;;;;;;3.48;67.29;101292.35;1736657;80;21523;-61
2021/12/16 08:00:33;;;;;;;26.12;13.58;;;;;;;3.45;67.46;101284.22;1731632;80;21146;-61
2021/12/16 08:03:01;;;;;;;23.80;12.47;;;;;;;3.47;67.71;101282.86;1736056;80;21067;-60
2021/12/16 08:05:29;;;;;;;24.55;11.97;;;;;;;3.51;67.30;101281.84;1699392;82;21065;-61
2021/12/16 08:07:55;;;;;;;27.20;13.22;;;;;;;3.46;67.43;101283.76;1713167;80;21694;-61
2021/12/16 08:10:23;;;;;;;25.43;13.10;;;;;;;3.44;67.45;101288.17;1722011;81;21050;-61
2021/12/16 08:12:49;;;;;;;20.68;11.33;;;;;;;3.39;67.44;101283.59;1695086;81;21065;-61
2021/12/16 08:15:16;;;;;;;21.62;12.33;;;;;;;3.40;67.30;101287.44;1698149;82;21097;-61
2021/12/16 08:17:43;;;;;;;21.42;11.75;;;;;;;3.48;67.25;101279.34;1710749;81;21082;-62
2021/12/16 08:20:11;;;;;;;23.70;12.73;;;;;;;3.59;67.27;101284.17;1717462;81;21083;-62
2021/12/16 08:22:37;;;;;;;22.35;11.18;;;;;;;3.64;67.10;101273.98;1710218;81;21106;-62
2021/12/16 08:25:05;;;;;;;28.45;12.50;;;;;;;3.63;66.97;101271.43;1714424;81;21086;-61
2021/12/16 08:27:33;;;;;;;24.92;12.33;;;;;;;3.57;67.20;101264.70;1713617;81;21109;-61
2021/12/16 08:30:00;;;;;;;22.85;10.25;;;;;;;3.60;67.45;101267.63;1713400;81;21177;-61
2021/12/16 08:32:26;;;;;;;21.97;11.97;;;;;;;3.61;67.44;101261.53;1714900;81;21074;-61
2021/12/16 08:34:53;;;;;;;23.55;13.20;;;;;;;3.59;67.16;101262.89;1701648;81;21107;-61
2021/12/16 08:37:24;;;;;;;22.37;13.03;;;;;;;3.50;67.29;101261.48;1711421;81;21045;-61
2021/12/16 08:39:48;;;;;;;19.67;11.28;;;;;;;3.45;67.45;101262.10;1691647;81;21066;-61
2021/12/16 08:42:15;;;;;;;22.58;12.35;;;;;;;3.47;67.61;101262.89;1714930;81;21209;-62
2021/12/16 08:44:41;;;;;;;21.73;10.72;;;;;;;3.61;67.51;101261.53;1714567;81;21066;-62
2021/12/16 08:47:12;;;;;;;19.82;11.93;;;;;;;3.71;67.45;101255.08;1697185;81;21766;-60
2021/12/16 08:49:38;;;;;;;19.50;11.97;;;;;;;3.80;67.37;101252.14;1716836;81;21840;-60
2021/12/16 08:52:11;;;;;;;28.50;13.75;;;;;;;3.82;67.29;101249.02;1720834;81;21034;-61
2021/12/16 08:54:38;;;;;;;23.62;13.05;;;;;;;3.80;67.31;101243.03;1713068;81;21149;-61
2021/12/16 08:57:05;;;;;;;24.60;12.70;;;;;;;3.81;67.43;101244.71;1713769;81;21054;-62
2021/12/16 08:59:32;;;;;;;23.75;12.60;;;;;;;3.81;67.40;101233.00;1717226;81;21046;-62
2021/12/16 09:01:59;;;;;;;24.37;12.60;;;;;;;3.82;67.38;101228.20;1699962;81;21016;-61
2021/12/16 09:04:26;;;;;;;21.07;12.28;;;;;;;3.83;67.33;101229.91;1696736;81;20976;-61
2021/12/16 09:06:54;;;;;;;24.60;12.10;;;;;;;3.77;67.13;101224.09;1685527;82;20995;-62
2021/12/16 09:09:20;;;;;;;32.23;13.00;;;;;;;3.75;67.07;101217.63;1660040;84;21030;-62
2021/12/16 09:14:34;;;;;;;21.80;12.28;;;;;;;3.83;67.09;101201.70;1638522;86;21777;-61
2021/12/16 09:17:03;;;;;;;25.37;13.22;;;;;;;3.78;67.30;101201.87;1628103;86;21581;-62
2021/12/16 09:19:30;;;;;;;22.85;12.37;;;;;;;3.76;67.55;101197.19;1665607;82;21169;-61
2021/12/16 09:21:56;;;;;;;21.80;12.63;;;;;;;3.76;67.67;101184.16;1698386;82;21658;-62
2021/12/16 09:24:23;;;;;;;23.55;13.03;;;;;;;3.75;67.63;101182.48;1703428;81;21097;-61
2021/12/16 09:26:49;;;;;;;23.77;10.08;;;;;;;3.72;67.57;101176.09;1693547;82;21554;-62
2021/12/16 09:29:16;;;;;;;23.30;11.70;;;;;;;3.71;67.61;101179.13;1702451;82;21070;-60
2021/12/16 09:31:43;;;;;;;29.35;11.55;;;;;;;3.72;67.71;101174.33;1685077;82;21814;-61
2021/12/16 09:34:09;;;;;;;25.52;11.68;;;;;;;3.88;67.49;101173.30;1694648;81;21110;-60
2021/12/16 09:36:40;;;;;;;24.40;11.38;;;;;;;3.96;67.51;101170.83;1712938;82;21060;-60
2021/12/16 09:39:11;;;;;;;30.52;12.50;;;;;;;3.98;67.40;101163.80;1697449;82;21105;-60
2021/12/16 09:41:38;;;;;;;19.82;11.28;;;;;;;3.97;67.49;101164.27;1659328;83;21034;-61
2021/12/16 09:44:05;;;;;;;21.80;12.58;;;;;;;3.96;67.52;101156.05;1678584;82;21574;-62
2021/12/16 09:46:31;;;;;;;21.23;12.03;;;;;;;3.89;67.46;101147.63;1687058;82;21058;-61
2021/12/16 09:48:58;;;;;;;21.62;11.95;;;;;;;3.84;67.67;101153.94;1660885;84;21101;-61
2021/12/16 09:51:27;;;;;;;19.60;11.65;;;;;;;3.79;67.81;101146.77;1674925;83;21600;-61
2021/12/16 09:54:01;;;;;;;21.73;12.00;;;;;;;3.81;68.00;101142.34;1674221;82;21073;-60
2021/12/16 09:56:30;;;;;;;20.90;10.65;;;;;;;3.91;67.75;101135.86;1680463;83;22217;-61
2021/12/16 09:58:57;;;;;;;21.40;12.70;;;;;;;3.95;67.80;101136.58;1692978;82;21167;-60
2021/12/16 10:01:24;;;;;;;21.65;12.88;;;;;;;3.92;67.94;101137.56;1674370;82;21957;-60
2021/12/16 10:03:54;;;;;;;28.42;13.60;;;;;;;3.86;67.99;101125.62;1670543;82;21058;-61
2021/12/16 10:06:20;;;;;;;21.95;11.50;;;;;;;3.82;68.21;101126.66;1700884;82;22445;-61
2021/12/16 10:08:48;;;;;;;21.62;13.08;;;;;;;3.77;68.27;101122.09;1698851;82;21094;-61
2021/12/16 10:11:16;;;;;;;21.57;12.30;;;;;;;3.71;68.35;101115.82;1692609;82;21074;-61
2021/12/16 10:14:01;;;;;;;23.47;12.82;;;;;;;3.71;68.45;101115.82;1696973;82;21108;-61
2021/12/16 10:18:57;;;;;;;21.27;14.17;;;;;;;3.84;68.55;101096.66;1693630;82;21166;-61
2021/12/16 10:21:24;;;;;;;28.25;13.28;;;;;;;3.82;68.66;101091.98;1698233;82;21104;-62
2021/12/16 10:23:51;;;;;;;31.90;13.93;;;;;;;3.77;68.86;101079.61;1690663;82;21530;-62
2021/12/16 10:26:23;;;;;;;21.35;12.85;;;;;;;3.74;69.04;101080.56;1690039;82;21046;-62
2021/12/16 10:28:53;;;;;;;23.77;14.05;;;;;;;3.72;69.26;101072.81;1685606;82;21042;-61
2021/12/16 10:31:32;;;;;;;19.55;11.97;;;;;;;3.71;69.39;101064.59;1692927;81;21089;-61
2021/12/16 10:34:01;;;;;;;21.07;12.47;;;;;;;3.76;69.49;101067.03;1692098;82;23313;-60
2021/12/16 10:36:41;;;;;;;25.23;14.18;;;;;;;3.91;69.40;101070.30;1694138;82;21114;-62
2021/12/16 10:39:22;;;;;;;26.30;14.05;;;;;;;3.98;69.30;101072.66;1662213;82;21081;-61
2021/12/16 10:41:54;;;;;;;21.12;13.55;;;;;;;3.96;69.56;101071.88;1692956;81;21104;-60
2021/12/16 10:44:30;;;;;;;23.87;13.83;;;;;;;3.93;69.84;101070.70;1691326;82;22369;-63
2021/12/16 10:47:13;;;;;;;21.62;13.00;;;;;;;3.89;70.15;101069.52;1691809;82;21179;-62
2021/12/16 10:49:51;;;;;;;22.50;13.08;;;;;;;3.88;70.20;101066.98;1691781;82;21054;-62
2021/12/16 10:52:29;;;;;;;22.02;13.13;;;;;;;3.90;70.19;101060.81;1692832;82;21062;-61
2021/12/16 10:54:57;;;;;;;28.80;13.43;;;;;;;4.04;70.00;101050.28;1679960;82;21118;-62
2021/12/16 10:57:30;;;;;;;24.80;13.78;;;;;;;4.15;69.96;101048.05;1683208;83;21090;-62
2021/12/16 10:59:59;;;;;;;34.23;15.03;;;;;;;4.21;69.88;101054.30;1689375;83;21194;-63
2021/12/16 11:02:28;;;;;;;23.92;13.78;;;;;;;4.24;70.00;101039.84;1687812;82;21090;-60
2021/12/16 11:05:14;;;;;;;22.25;13.40;;;;;;;4.30;70.05;101041.80;1684745;82;21102;-63
2021/12/16 11:07:44;;;;;;;22.82;13.05;;;;;;;4.31;69.79;101042.20;1699207;82;21033;-62
2021/12/16 11:10:20;;;;;;;21.27;12.85;;;;;;;4.29;69.80;101034.45;1689319;82;21411;-61
2021/12/16 11:12:52;;;;;;;24.07;13.05;;;;;;;4.31;69.74;101043.50;1688397;82;21077;-61
2021/12/16 11:15:32;;;;;;;22.37;12.80;;;;;;;4.36;69.66;101037.63;1713728;82;21059;-62
2021/12/16 11:18:14;;;;;;;18.35;11.28;;;;;;;4.49;69.63;101038.79;1708398;82;21562;-62
2021/12/16 11:20:44;;;;;;;22.07;12.70;;;;;;;4.61;69.44;101038.23;1702320;82;22628;-62
2021/12/16 11:23:17;;;;;;;19.20;11.97;;;;;;;4.67;69.20;101029.75;1715929;82;21034;-62
2021/12/16 11:26:00;;;;;;;18.60;11.55;;;;;;;4.70;69.29;101027.84;1717846;82;21137;-64
2021/12/16 11:28:33;;;;;;;20.57;12.63;;;;;;;4.74;69.10;101023.33;1716132;82;21029;-62
2021/12/16 11:31:18;;;;;;;21.30;12.40;;;;;;;4.68;69.01;101024.47;1708920;82;21018;-62
2021/12/16 11:33:55;;;;;;;21.53;12.40;;;;;;;4.63;69.14;101030.34;1699338;82;21109;-62
2021/12/16 11:36:29;;;;;;;20.90;12.10;;;;;;;4.59;69.26;101024.44;1710105;82;21030;-61
2021/12/16 11:39:06;;;;;;;18.87;12.05;;;;;;;4.55;69.29;101022.02;1683500;82;20991;-63
2021/12/16 11:41:48;;;;;;;19.12;11.40;;;;;;;4.62;69.22;101013.88;1703285;82;20990;-63
2021/12/16 11:44:25;;;;;;;21.07;11.93;;;;;;;4.68;69.18;101021.03;1704832;82;21049;-62
2021/12/16 11:47:19;;;;;;;22.55;12.88;;;;;;;4.73;69.36;101006.86;1716503;82;21073;-63
2021/12/16 11:50:04;;;;;;;17.55;11.12;;;;;;;4.73;69.45;101006.86;1720190;81;21561;-62
2021/12/16 11:52:30;;;;;;;20.77;11.80;;;;;;;4.73;69.54;101003.41;1712054;82;21079;-63
2021/12/16 11:55:01;;;;;;;21.23;11.70;;;;;;;4.73;69.48;101006.86;1708824;82;21711;-62
2021/12/16 11:57:51;;;;;;;19.60;11.50;;;;;;;4.70;69.50;101004.85;1681772;83;20986;-62
2021/12/16 12:00:28;;;;;;;17.82;10.63;;;;;;;4.65;69.58;101011.10;1703499;82;21065;-61
2021/12/16 12:03:06;;;;;;;20.02;11.43;;;;;;;4.68;69.55;100993.19;1706950;82;22114;-61
2021/12/16 12:05:45;;;;;;;20.25;10.43;;;;;;;4.79;69.49;100995.29;1703308;82;21087;-61
2021/12/16 12:08:23;;;;;;;22.20;11.30;;;;;;;4.93;69.43;100994.67;1723595;81;21135;-61
2021/12/16 12:11:06;;;;;;;25.20;11.80;;;;;;;4.99;69.29;100996.53;1716833;81;21119;-62
2021/12/16 12:13:37;;;;;;;19.75;11.63;;;;;;;4.99;69.25;100977.41;1720022;81;21603;-62
2021/12/16 12:16:14;;;;;;;19.25;11.38;;;;;;;4.95;69.35;100976.72;1708227;81;21137;-60
2021/12/16 12:18:57;;;;;;;24.10;13.35;;;;;;;4.90;69.33;100969.56;1725890;80;21110;-61
2021/12/16 12:21:44;;;;;;;23.57;12.70;;;;;;;4.87;69.53;100967.09;1723688;81;21047;-63
2021/12/16 12:24:36;;;;;;;18.02;11.48;;;;;;;4.86;69.60;100968.03;1723128;81;21615;-62
2021/12/16 12:27:11;;;;;;;24.07;13.75;;;;;;;4.89;69.54;100962.65;1704976;81;21106;-61
2021/12/16 12:29:50;;;;;;;;;;;;;;;5.00;69.36;100954.34;1720864;81;21491;-62
2021/12/16 12:32:41;;;;;;;20.27;12.15;;;;;;;5.05;69.44;100958.04;1724205;81;21227;-62
2021/12/16 12:35:15;;;;;;;22.22;12.53;;;;;;;4.97;69.60;100951.40;1723238;81;21039;-60
2021/12/16 12:37:48;;;;;;;19.50;13.00;;;;;;;4.96;69.82;100954.08;1718422;81;21073;-61
2021/12/16 12:40:29;;;;;;;23.12;13.43;;;;;;;4.95;69.89;100948.03;1671675;83;21063;-61
2021/12/16 12:42:56;;;;;;;23.30;13.70;;;;;;;4.96;69.89;100947.12;1706220;81;21150;-61
2021/12/16 12:45:26;;;;;;;28.25;13.40;;;;;;;4.92;69.90;100946.86;1720023;81;21116;-61
2021/12/16 12:47:54;;;;;;;25.23;13.75;;;;;;;4.98;69.86;100941.36;1719049;81;21051;-61
2021/12/16 12:50:35;;;;;;;24.35;13.65;;;;;;;5.08;69.67;100940.47;1714155;81;21839;-61
2021/12/16 12:53:19;;;;;;;19.90;12.28;;;;;;;5.12;69.59;100947.22;1719103;81;21059;-61
2021/12/16 12:55:46;;;;;;;24.55;13.48;;;;;;;5.11;69.75;100932.50;1718664;81;21707;-60
2021/12/16 12:58:22;;;;;;;24.10;13.90;;;;;;;5.03;69.93;100929.41;1720022;80;21148;-62
2021/12/16 13:00:53;;;;;;;20.48;13.13;;;;;;;4.94;70.20;100925.49;1721579;81;21059;-62
2021/12/16 13:03:30;;;;;;;23.35;14.70;;;;;;;4.92;70.41;100930.38;1718518;81;21598;-61
2021/12/16 13:06:11;;;;;;;22.82;13.60;;;;;;;4.88;70.60;100925.77;1724087;81;21058;-61
2021/12/16 13:08:42;;;;;;;22.45;13.60;;;;;;;4.89;70.70;100925.30;1703100;81;21105;-61
2021/12/16 13:11:15;;;;;;;21.60;12.80;;;;;;;4.93;70.63;100929.01;1744034;80;21627;-62
2021/12/16 13:14:13;;;;;;;23.62;14.38;;;;;;;5.03;70.40;100927.64;1745647;81;21042;-63
2021/12/16 13:27:35;;;;;;;27.52;14.78;;;;;;;4.79;71.11;100916.62;1739208;80;21043;-61
2021/12/16 13:30:17;;;;;;;24.27;15.55;;;;;;;4.82;71.19;100911.71;1747045;80;21784;-61
2021/12/16 13:32:46;;;;;;;25.17;14.07;;;;;;;4.97;71.02;100922.71;1706460;81;21154;-61
2021/12/16 13:37:53;;;;;;;26.62;15.58;;;;;;;4.94;71.05;100931.14;1734035;80;21879;-63
2021/12/16 13:40:30;;;;;;;24.23;13.95;;;;;;;4.88;71.26;100937.51;1737808;80;21043;-62
2021/12/16 13:43:03;;;;;;;28.52;15.68;;;;;;;4.83;71.45;100940.33;1735682;80;21070;-61
2021/12/16 13:45:44;;;;;;;24.18;14.20;;;;;;;4.81;71.65;100934.34;1704153;82;21046;-61
2021/12/16 14:05:33;;;;;;;27.67;16.65;;;;;;;4.87;71.83;100912.34;1709276;82;21119;-61
2021/12/16 14:08:03;;;;;;;27.82;17.40;;;;;;;4.97;71.70;100919.27;1708730;80;21059;-61
2021/12/16 14:10:51;;;;;;;32.95;16.65;;;;;;;4.98;71.71;100907.93;1707209;81;21106;-62
2021/12/16 14:35:53;;;;;;;35.15;18.02;;;;;;;4.88;72.43;100927.08;1736803;80;21666;-62
2021/12/16 14:38:14;;;;;;;36.38;19.73;;;;;;;4.86;72.54;100929.36;1735986;81;21059;-62
2021/12/16 14:41:04;;;;;;;34.50;18.57;;;;;;;4.80;72.64;100926.59;1709011;80;21094;-61
2021/12/16 14:43:19;;;;;;;32.08;17.92;;;;;;;4.80;72.75;100927.42;1733904;81;21091;-61
2021/12/16 14:45:53;;;;;;;33.38;17.23;;;;;;;4.89;72.64;100932.66;1742666;80;21153;-60
2021/12/16 14:48:32;;;;;;;29.37;17.05;;;;;;;4.95;72.64;100928.47;1740538;80;21079;-61
2021/12/16 14:51:03;;;;;;;30.52;17.50;;;;;;;5.00;72.75;100929.09;1727556;80;21725;-62
2021/12/16 14:53:42;;;;;;;30.05;18.27;;;;;;;5.02;72.77;100932.93;1710385;81;21109;-62
2021/12/16 14:56:14;;;;;;;35.63;19.05;;;;;;;4.97;72.70;100920.10;1715875;81;21069;-61
2021/12/16 14:58:42;;;;;;;32.33;17.50;;;;;;;4.93;72.89;100928.17;1742455;80;21285;-62